No particular awareness of the weather is required.    There are no Weather-warnings


Meteo18 Weather Cam more information Meteo18 Weather Cam


Thunder radar more information blitzortung!


Rain radar more information rain snow radar


Visit our other weather sites:

Template documentation
and downloads

And another site



Weather Underground History page Text

Daily Summary for May 7, 2016 Units:  Metric    English   Both
« Previous Day
Next Day »
Daily Weekly Monthly Yearly Custom
  High: Low: Average:
Temperature: 24.2 °C 8.2 °C 15.8 °C
Dew Point: 14.8 °C 6.4 °C 9.9 °C
Humidity: 92 % 42 % 70 %
Wind Speed: 8.0 km/h 0.0 km/h 0.9 km/h
Wind Gust: 14.5 km/h - -
Wind:- - West
Pressure: 1010.0 hPa 1006.0 hPa -
Precipitation: 0.0 mm    
Historical Graphs
 
 
Tabular Data for May 7, 2016
Time Temperature Dew Point Pressure Wind Wind Speed Wind Gust Humidity Rainfall Rate (Hourly)
00:02 11.3 °C 9.9 °C 1009.7 hPa Calm     91 % 0.0 mm
00:07 11.3 °C 9.7 °C 1009.7 hPa Calm     90 % 0.0 mm
00:12 11.2 °C 9.6 °C 1009.7 hPa Calm     90 % 0.0 mm
00:17 11.1 °C 9.7 °C 1009.7 hPa Calm     91 % 0.0 mm
00:22 11.2 °C 9.8 °C 1009.7 hPa Calm     91 % 0.0 mm
00:32 11.2 °C 9.8 °C 1009.7 hPa Calm     91 % 0.0 mm
00:42 11.2 °C 9.8 °C 1009.7 hPa Calm     91 % 0.0 mm
00:47 11.2 °C 9.8 °C 1009.7 hPa Calm     91 % 0.0 mm
00:52 11.2 °C 9.8 °C 1009.7 hPa Calm     91 % 0.0 mm
00:57 11.1 °C 9.7 °C 1009.7 hPa Calm     91 % 0.0 mm
01:02 11.1 °C 9.7 °C 1009.7 hPa Calm     91 % 0.0 mm
01:07 11.1 °C 9.7 °C 1010.0 hPa Calm     91 % 0.0 mm
01:12 11.1 °C 9.8 °C 1010.0 hPa Calm     92 % 0.0 mm
01:17 11.1 °C 9.8 °C 1010.0 hPa Calm     92 % 0.0 mm
01:22 11.1 °C 9.8 °C 1010.0 hPa Calm     92 % 0.0 mm
01:27 11.1 °C 9.8 °C 1010.0 hPa Calm     92 % 0.0 mm
01:32 11.0 °C 9.8 °C 1010.0 hPa Calm     92 % 0.0 mm
01:37 10.9 °C 9.5 °C 1010.0 hPa Calm     91 % 0.0 mm
01:42 10.9 °C 9.5 °C 1010.0 hPa Calm     91 % 0.0 mm
01:47 10.7 °C 9.3 °C 1009.7 hPa Calm     91 % 0.0 mm
01:52 10.7 °C 9.3 °C 1010.0 hPa Calm     91 % 0.0 mm
01:57 10.6 °C 9.2 °C 1009.7 hPa Calm     91 % 0.0 mm
02:02 10.7 °C 9.5 °C 1009.7 hPa Calm     92 % 0.0 mm
02:07 10.7 °C 9.5 °C 1009.7 hPa Calm     92 % 0.0 mm
02:12 10.7 °C 9.5 °C 1009.7 hPa Calm     92 % 0.0 mm
02:17 10.7 °C 9.5 °C 1009.7 hPa Calm     92 % 0.0 mm
02:22 10.7 °C 9.3 °C 1009.7 hPa Calm     91 % 0.0 mm
02:27 10.7 °C 9.3 °C 1009.4 hPa Calm     91 % 0.0 mm
02:32 10.7 °C 9.3 °C 1009.4 hPa Calm     91 % 0.0 mm
02:37 10.8 °C 9.2 °C 1009.4 hPa Calm     90 % 0.0 mm
02:42 10.8 °C 9.1 °C 1009.4 hPa Calm     89 % 0.0 mm
02:47 10.8 °C 8.9 °C 1009.4 hPa Calm     88 % 0.0 mm
02:52 10.9 °C 8.6 °C 1009.4 hPa Calm     86 % 0.0 mm
02:57 11.0 °C 8.7 °C 1009.4 hPa Calm     86 % 0.0 mm
03:02 11.0 °C 8.9 °C 1009.4 hPa Calm     87 % 0.0 mm
03:07 11.1 °C 8.8 °C 1009.0 hPa Calm     86 % 0.0 mm
03:12 11.1 °C 8.8 °C 1009.4 hPa Calm     86 % 0.0 mm
03:17 11.1 °C 8.8 °C 1009.0 hPa Calm     86 % 0.0 mm
03:22 11.1 °C 8.8 °C 1009.0 hPa Calm     86 % 0.0 mm
03:27 11.0 °C 8.7 °C 1009.0 hPa Calm     86 % 0.0 mm
03:32 10.9 °C 8.6 °C 1009.0 hPa Calm   1.6 km/h 86 % 0.0 mm
03:37 10.9 °C 8.3 °C 1009.0 hPa Calm   1.6 km/h 84 % 0.0 mm
03:42 11.4 °C 8.3 °C 1009.0 hPa Calm   1.6 km/h 81 % 0.0 mm
03:47 11.8 °C 8.3 °C 1009.0 hPa Calm   1.6 km/h 79 % 0.0 mm
03:52 12.0 °C 8.3 °C 1009.0 hPa SSW 4.8 km/h 4.8 km/h 78 % 0.0 mm
03:57 12.1 °C 7.8 °C 1009.0 hPa Calm   8.0 km/h 75 % 0.0 mm
04:02 12.2 °C 7.9 °C 1009.0 hPa Calm   8.0 km/h 75 % 0.0 mm
04:07 12.1 °C 7.8 °C 1008.7 hPa Calm   8.0 km/h 75 % 0.0 mm
04:12 12.2 °C 7.7 °C 1008.7 hPa Calm   3.2 km/h 74 % 0.0 mm
04:17 12.0 °C 7.5 °C 1008.7 hPa Calm   3.2 km/h 74 % 0.0 mm
04:22 11.8 °C 7.7 °C 1008.7 hPa Calm   3.2 km/h 76 % 0.0 mm
04:27 11.4 °C 7.5 °C 1008.7 hPa Calm     77 % 0.0 mm
04:32 11.2 °C 7.3 °C 1008.7 hPa Calm     77 % 0.0 mm
04:37 10.8 °C 7.1 °C 1008.7 hPa Calm     78 % 0.0 mm
04:42 10.4 °C 6.9 °C 1008.7 hPa Calm     79 % 0.0 mm
04:47 10.1 °C 7.0 °C 1008.7 hPa Calm     81 % 0.0 mm
04:52 9.7 °C 7.1 °C 1008.7 hPa Calm     84 % 0.0 mm
04:57 9.4 °C 7.0 °C 1008.7 hPa Calm     85 % 0.0 mm
05:02 9.1 °C 6.7 °C 1008.7 hPa Calm     85 % 0.0 mm
05:12 8.8 °C 6.4 °C 1008.4 hPa Calm     85 % 0.0 mm
05:17 8.8 °C 6.6 °C 1008.4 hPa Calm     86 % 0.0 mm
05:22 8.7 °C 6.5 °C 1008.4 hPa Calm     86 % 0.0 mm
05:27 8.6 °C 6.4 °C 1008.4 hPa Calm     86 % 0.0 mm
05:32 8.6 °C 6.4 °C 1008.4 hPa Calm     86 % 0.0 mm
05:37 8.6 °C 6.4 °C 1008.4 hPa Calm     86 % 0.0 mm
05:42 8.7 °C 6.5 °C 1008.4 hPa Calm     86 % 0.0 mm
05:47 8.7 °C 6.5 °C 1008.4 hPa Calm     86 % 0.0 mm
05:52 8.7 °C 6.7 °C 1008.7 hPa Calm     87 % 0.0 mm
05:57 8.7 °C 6.7 °C 1008.4 hPa Calm     87 % 0.0 mm
06:02 8.7 °C 6.7 °C 1008.4 hPa Calm     87 % 0.0 mm
06:07 8.8 °C 6.8 °C 1008.4 hPa Calm     87 % 0.0 mm
06:12 8.8 °C 6.8 °C 1008.4 hPa Calm     87 % 0.0 mm
06:17 8.8 °C 6.9 °C 1008.4 hPa Calm     88 % 0.0 mm
06:22 8.8 °C 6.8 °C 1008.4 hPa Calm     87 % 0.0 mm
06:27 8.8 °C 6.6 °C 1008.4 hPa Calm     86 % 0.0 mm
06:32 8.8 °C 6.6 °C 1008.4 hPa Calm     86 % 0.0 mm
06:37 8.7 °C 6.7 °C 1008.4 hPa Calm     87 % 0.0 mm
06:42 8.6 °C 6.7 °C 1008.4 hPa Calm     88 % 0.0 mm
06:47 8.6 °C 6.9 °C 1008.4 hPa Calm     89 % 0.0 mm
06:52 8.6 °C 6.7 °C 1008.4 hPa Calm     88 % 0.0 mm
07:02 8.4 °C 6.5 °C 1008.4 hPa Calm     88 % 0.0 mm
07:07 8.3 °C 6.4 °C 1008.4 hPa Calm     88 % 0.0 mm
07:17 8.3 °C 6.4 °C 1008.4 hPa Calm     88 % 0.0 mm
07:22 8.3 °C 6.4 °C 1008.4 hPa Calm     88 % 0.0 mm
07:27 8.3 °C 6.6 °C 1008.4 hPa Calm     89 % 0.0 mm
07:32 8.2 °C 6.5 °C 1008.4 hPa Calm     89 % 0.0 mm
07:37 8.3 °C 6.6 °C 1008.4 hPa Calm     89 % 0.0 mm
07:42 8.6 °C 6.9 °C 1008.4 hPa Calm   1.6 km/h 89 % 0.0 mm
07:47 8.9 °C 7.2 °C 1008.4 hPa Calm   1.6 km/h 89 % 0.0 mm
07:52 9.1 °C 7.4 °C 1008.4 hPa Calm   1.6 km/h 89 % 0.0 mm
07:57 9.4 °C 7.5 °C 1008.4 hPa Calm     88 % 0.0 mm
08:02 9.7 °C 7.5 °C 1008.7 hPa Calm   1.6 km/h 86 % 0.0 mm
08:07 10.1 °C 7.5 °C 1008.7 hPa Calm   1.6 km/h 84 % 0.0 mm
08:12 10.4 °C 8.2 °C 1008.7 hPa Calm   1.6 km/h 86 % 0.0 mm
08:17 10.7 °C 8.3 °C 1008.7 hPa Calm     85 % 0.0 mm
08:22 10.9 °C 8.5 °C 1008.7 hPa Calm     85 % 0.0 mm
08:32 11.4 °C 8.8 °C 1008.7 hPa Calm     84 % 0.0 mm
08:37 11.7 °C 8.7 °C 1008.7 hPa Calm     82 % 0.0 mm
08:42 11.9 °C 8.7 °C 1008.7 hPa Calm     81 % 0.0 mm
08:47 12.2 °C 9.0 °C 1008.7 hPa Calm     81 % 0.0 mm
08:52 12.6 °C 8.3 °C 1008.7 hPa Calm     75 % 0.0 mm
08:57 13.1 °C 9.0 °C 1008.7 hPa Calm   1.6 km/h 76 % 0.0 mm
09:02 13.5 °C 8.6 °C 1008.7 hPa Calm   1.6 km/h 72 % 0.0 mm
09:07 14.1 °C 9.3 °C 1008.7 hPa Calm   3.2 km/h 73 % 0.0 mm
09:12 14.5 °C 9.1 °C 1008.7 hPa Calm   3.2 km/h 70 % 0.0 mm
09:17 14.9 °C 9.5 °C 1008.7 hPa WNW 1.6 km/h 4.8 km/h 70 % 0.0 mm
09:22 15.1 °C 8.8 °C 1008.7 hPa Calm   4.8 km/h 66 % 0.0 mm
09:27 15.3 °C 9.2 °C 1008.7 hPa Calm   4.8 km/h 67 % 0.0 mm
09:32 15.5 °C 9.4 °C 1008.7 hPa West 3.2 km/h 4.8 km/h 67 % 0.0 mm
09:37 15.7 °C 9.4 °C 1008.7 hPa Calm   4.8 km/h 66 % 0.0 mm
09:42 15.9 °C 9.6 °C 1008.7 hPa West 1.6 km/h 4.8 km/h 66 % 0.0 mm
09:47 16.1 °C 9.3 °C 1009.0 hPa Calm   4.8 km/h 64 % 0.0 mm
09:52 16.2 °C 9.1 °C 1009.0 hPa SW 1.6 km/h 8.0 km/h 63 % 0.0 mm
09:57 16.2 °C 9.1 °C 1008.7 hPa Calm   8.0 km/h 63 % 0.0 mm
10:02 16.2 °C 9.4 °C 1008.7 hPa West 4.8 km/h 8.0 km/h 64 % 0.0 mm
10:07 16.2 °C 9.1 °C 1008.7 hPa Calm   6.4 km/h 63 % 0.0 mm
10:12 16.3 °C 9.2 °C 1008.7 hPa WSW 1.6 km/h 11.3 km/h 63 % 0.0 mm
10:17 16.2 °C 9.8 °C 1008.7 hPa Calm   11.3 km/h 66 % 0.0 mm
10:22 16.3 °C 9.9 °C 1008.7 hPa Calm   3.2 km/h 66 % 0.0 mm
10:27 16.4 °C 9.3 °C 1008.7 hPa SW 1.6 km/h 6.4 km/h 63 % 0.0 mm
10:32 16.4 °C 9.6 °C 1008.7 hPa SW 1.6 km/h 6.4 km/h 64 % 0.0 mm
10:37 16.7 °C 10.3 °C 1008.7 hPa WSW 3.2 km/h 6.4 km/h 66 % 0.0 mm
10:42 17.0 °C 9.4 °C 1008.7 hPa Calm   4.8 km/h 61 % 0.0 mm
10:47 17.1 °C 9.5 °C 1008.7 hPa Calm   6.4 km/h 61 % 0.0 mm
10:52 17.5 °C 9.4 °C 1008.7 hPa NW 1.6 km/h 8.0 km/h 59 % 0.0 mm
10:57 17.9 °C 10.0 °C 1008.7 hPa Calm   9.7 km/h 60 % 0.0 mm
11:02 17.9 °C 9.8 °C 1008.7 hPa Calm   9.7 km/h 59 % 0.0 mm
11:07 17.7 °C 9.3 °C 1008.4 hPa NW 4.8 km/h 9.7 km/h 58 % 0.0 mm
11:12 17.5 °C 9.4 °C 1008.7 hPa Calm   9.7 km/h 59 % 0.0 mm
11:17 17.8 °C 10.2 °C 1008.7 hPa SW 4.8 km/h 9.7 km/h 61 % 0.0 mm
11:22 18.3 °C 9.6 °C 1008.4 hPa WSW 1.6 km/h 9.7 km/h 57 % 0.0 mm
11:32 18.9 °C 9.9 °C 1008.4 hPa NNW 1.6 km/h 12.9 km/h 56 % 0.0 mm
11:37 19.2 °C 10.2 °C 1008.4 hPa WSW 8.0 km/h 12.9 km/h 56 % 0.0 mm
11:42 19.1 °C 9.6 °C 1008.4 hPa NNW 3.2 km/h 9.7 km/h 54 % 0.0 mm
11:47 19.3 °C 10.6 °C 1008.4 hPa WSW 4.8 km/h 11.3 km/h 57 % 0.0 mm
11:57 19.9 °C 9.8 °C 1008.4 hPa West 3.2 km/h 11.3 km/h 52 % 0.0 mm
12:02 20.1 °C 9.9 °C 1008.4 hPa West 1.6 km/h 14.5 km/h 52 % 0.0 mm
12:12 20.3 °C 9.2 °C 1008.4 hPa Calm   11.3 km/h 49 % 0.0 mm
12:17 20.2 °C 9.1 °C 1008.4 hPa WNW 1.6 km/h 11.3 km/h 49 % 0.0 mm
12:22 20.3 °C 9.8 °C 1008.4 hPa SW 3.2 km/h 11.3 km/h 51 % 0.0 mm
12:27 20.7 °C 10.5 °C 1008.4 hPa WSW 1.6 km/h 11.3 km/h 52 % 0.0 mm
12:32 21.0 °C 9.9 °C 1008.4 hPa West 1.6 km/h 9.7 km/h 49 % 0.0 mm
12:42 21.2 °C 10.7 °C 1008.4 hPa WSW 3.2 km/h 9.7 km/h 51 % 0.0 mm
12:47 21.2 °C 9.8 °C 1008.4 hPa West 8.0 km/h 14.5 km/h 48 % 0.0 mm
12:52 21.6 °C 9.8 °C 1008.0 hPa West 3.2 km/h 14.5 km/h 47 % 0.0 mm
12:57 21.8 °C 9.3 °C 1008.0 hPa NNW 4.8 km/h 12.9 km/h 45 % 0.0 mm
13:02 21.7 °C 10.5 °C 1008.0 hPa West 3.2 km/h 14.5 km/h 49 % 0.0 mm
13:07 21.8 °C 9.3 °C 1008.0 hPa WSW 4.8 km/h 14.5 km/h 45 % 0.0 mm
13:12 22.2 °C 11.9 °C 1008.0 hPa West 3.2 km/h 12.9 km/h 52 % 0.0 mm
13:17 22.4 °C 9.5 °C 1008.0 hPa WNW 1.6 km/h 12.9 km/h 44 % 0.0 mm
13:22 22.4 °C 10.2 °C 1008.0 hPa Calm   12.9 km/h 46 % 0.0 mm
13:27 22.4 °C 9.2 °C 1008.0 hPa SW 4.8 km/h 12.9 km/h 43 % 0.0 mm
13:32 22.6 °C 11.3 °C 1008.0 hPa Calm   12.9 km/h 49 % 0.0 mm
13:37 22.9 °C 11.3 °C 1008.0 hPa Calm   12.9 km/h 48 % 0.0 mm
13:42 22.9 °C 10.3 °C 1007.7 hPa West 8.0 km/h 9.7 km/h 45 % 0.0 mm
13:47 22.9 °C 11.3 °C 1007.7 hPa West 1.6 km/h 12.9 km/h 48 % 0.0 mm
13:52 23.1 °C 10.8 °C 1007.7 hPa WNW 1.6 km/h 12.9 km/h 46 % 0.0 mm
13:57 22.7 °C 9.5 °C 1007.7 hPa SW 1.6 km/h 12.9 km/h 43 % 0.0 mm
14:02 22.8 °C 10.6 °C 1007.7 hPa West 1.6 km/h 11.3 km/h 46 % 0.0 mm
14:07 22.8 °C 11.2 °C 1007.7 hPa WSW 3.2 km/h 12.9 km/h 48 % 0.0 mm
14:12 23.3 °C 11.4 °C 1007.7 hPa WNW 4.8 km/h 12.9 km/h 47 % 0.0 mm
14:17 23.3 °C 10.0 °C 1007.7 hPa WNW 3.2 km/h 12.9 km/h 43 % 0.0 mm
14:22 23.3 °C 10.0 °C 1007.7 hPa Calm   9.7 km/h 43 % 0.0 mm
14:32 23.8 °C 10.8 °C 1007.7 hPa Calm   11.3 km/h 44 % 0.0 mm
14:37 23.8 °C 12.1 °C 1007.7 hPa Calm   11.3 km/h 48 % 0.0 mm
14:42 24.1 °C 11.4 °C 1007.7 hPa WSW 4.8 km/h 11.3 km/h 45 % 0.0 mm
14:47 24.2 °C 11.5 °C 1007.7 hPa SW 3.2 km/h 11.3 km/h 45 % 0.0 mm
14:52 24.2 °C 10.5 °C 1007.3 hPa West 6.4 km/h 11.3 km/h 42 % 0.0 mm
14:57 24.1 °C 10.7 °C 1007.3 hPa Calm   11.3 km/h 43 % 0.0 mm
15:02 23.9 °C 10.6 °C 1007.3 hPa NW 3.2 km/h 12.9 km/h 43 % 0.0 mm
15:12 23.5 °C 11.2 °C 1007.3 hPa West 1.6 km/h 12.9 km/h 46 % 0.0 mm
15:17 23.1 °C 10.8 °C 1007.3 hPa NW 4.8 km/h 12.9 km/h 46 % 0.0 mm
15:22 22.6 °C 10.4 °C 1007.7 hPa WNW 8.0 km/h 12.9 km/h 46 % 0.0 mm
15:27 22.4 °C 10.5 °C 1007.3 hPa NW 1.6 km/h 12.9 km/h 47 % 0.0 mm
15:32 22.7 °C 10.5 °C 1007.3 hPa WNW 4.8 km/h 11.3 km/h 46 % 0.0 mm
15:37 22.9 °C 11.0 °C 1007.3 hPa WNW 6.4 km/h 11.3 km/h 47 % 0.0 mm
15:42 23.3 °C 11.4 °C 1007.3 hPa SSE 1.6 km/h 11.3 km/h 47 % 0.0 mm
15:47 23.1 °C 10.5 °C 1007.3 hPa NW 3.2 km/h 12.9 km/h 45 % 0.0 mm
15:52 23.2 °C 10.6 °C 1007.3 hPa WNW 4.8 km/h 12.9 km/h 45 % 0.0 mm
15:57 22.8 °C 10.2 °C 1007.3 hPa Calm   12.9 km/h 45 % 0.0 mm
16:02 22.8 °C 10.9 °C 1007.0 hPa Calm   11.3 km/h 47 % 0.0 mm
16:07 22.6 °C 10.4 °C 1007.0 hPa NW 4.8 km/h 11.3 km/h 46 % 0.0 mm
16:12 22.4 °C 10.2 °C 1007.0 hPa Calm   11.3 km/h 46 % 0.0 mm
16:17 22.5 °C 11.3 °C 1007.0 hPa SW 1.6 km/h 11.3 km/h 49 % 0.0 mm
16:22 22.6 °C 11.3 °C 1007.0 hPa WSW 4.8 km/h 8.0 km/h 49 % 0.0 mm
16:32 22.4 °C 11.5 °C 1007.0 hPa Calm   11.3 km/h 50 % 0.0 mm
16:42 22.8 °C 12.4 °C 1006.7 hPa Calm   11.3 km/h 52 % 0.0 mm
16:47 23.1 °C 10.8 °C 1006.7 hPa Calm   8.0 km/h 46 % 0.0 mm
16:52 23.2 °C 11.3 °C 1006.7 hPa West 3.2 km/h 8.0 km/h 47 % 0.0 mm
16:57 23.2 °C 11.6 °C 1006.7 hPa NW 3.2 km/h 8.0 km/h 48 % 0.0 mm
17:02 22.7 °C 9.8 °C 1006.7 hPa North 4.8 km/h 8.0 km/h 44 % 0.0 mm
17:07 22.3 °C 10.4 °C 1006.7 hPa NW 4.8 km/h 8.0 km/h 47 % 0.0 mm
17:12 22.2 °C 10.0 °C 1006.7 hPa NW 1.6 km/h 8.0 km/h 46 % 0.0 mm
17:17 22.2 °C 11.3 °C 1006.7 hPa Calm   6.4 km/h 50 % 0.0 mm
17:22 22.2 °C 11.3 °C 1006.7 hPa Calm   4.8 km/h 50 % 0.0 mm
17:27 22.4 °C 12.1 °C 1006.7 hPa Calm   4.8 km/h 52 % 0.0 mm
17:32 22.6 °C 11.3 °C 1006.7 hPa West 3.2 km/h 6.4 km/h 49 % 0.0 mm
17:37 22.7 °C 12.0 °C 1006.7 hPa Calm   6.4 km/h 51 % 0.0 mm
17:42 22.9 °C 12.8 °C 1006.7 hPa Calm   6.4 km/h 53 % 0.0 mm
17:47 23.2 °C 12.5 °C 1006.7 hPa Calm   4.8 km/h 51 % 0.0 mm
17:52 23.3 °C 11.7 °C 1006.3 hPa Calm   4.8 km/h 48 % 0.0 mm
17:57 23.3 °C 11.4 °C 1006.3 hPa Calm   4.8 km/h 47 % 0.0 mm
18:02 23.3 °C 11.4 °C 1006.3 hPa WSW 1.6 km/h 4.8 km/h 47 % 0.0 mm
18:07 23.2 °C 10.9 °C 1006.3 hPa NNW 3.2 km/h 4.8 km/h 46 % 0.0 mm
18:12 23.2 °C 11.6 °C 1006.3 hPa NNW 1.6 km/h 4.8 km/h 48 % 0.0 mm
18:22 23.0 °C 12.3 °C 1006.3 hPa NW 1.6 km/h 6.4 km/h 51 % 0.0 mm
18:32 22.6 °C 12.2 °C 1006.3 hPa Calm   6.4 km/h 52 % 0.0 mm
18:42 22.2 °C 11.6 °C 1006.3 hPa Calm   6.4 km/h 51 % 0.0 mm
18:47 22.1 °C 12.1 °C 1006.3 hPa NW 1.6 km/h 3.2 km/h 53 % 0.0 mm
18:52 21.9 °C 11.6 °C 1006.3 hPa NNW 1.6 km/h 3.2 km/h 52 % 0.0 mm
18:57 21.8 °C 11.5 °C 1006.0 hPa NW 1.6 km/h 3.2 km/h 52 % 0.0 mm
19:02 21.7 °C 11.4 °C 1006.0 hPa Calm   4.8 km/h 52 % 0.0 mm
19:07 21.7 °C 13.3 °C 1006.0 hPa Calm   4.8 km/h 59 % 0.0 mm
19:12 21.7 °C 12.8 °C 1006.0 hPa Calm   4.8 km/h 57 % 0.0 mm
19:17 21.7 °C 12.8 °C 1006.0 hPa Calm   3.2 km/h 57 % 0.0 mm
19:22 21.7 °C 14.1 °C 1006.0 hPa Calm     62 % 0.0 mm
19:27 21.3 °C 13.7 °C 1006.0 hPa Calm     62 % 0.0 mm
19:32 20.9 °C 14.1 °C 1006.3 hPa Calm     65 % 0.0 mm
19:37 20.7 °C 14.4 °C 1006.3 hPa Calm     67 % 0.0 mm
19:42 20.5 °C 14.8 °C 1006.0 hPa Calm     70 % 0.0 mm
19:47 20.3 °C 14.4 °C 1006.0 hPa Calm     69 % 0.0 mm
19:52 20.0 °C 14.4 °C 1006.0 hPa Calm     70 % 0.0 mm
20:02 19.3 °C 14.1 °C 1006.0 hPa Calm     72 % 0.0 mm
20:07 18.9 °C 13.5 °C 1006.0 hPa Calm     71 % 0.0 mm
20:12 18.6 °C 13.9 °C 1006.3 hPa Calm     74 % 0.0 mm
20:17 18.2 °C 13.7 °C 1006.3 hPa Calm     75 % 0.0 mm
20:22 17.9 °C 13.6 °C 1006.3 hPa Calm     76 % 0.0 mm
20:27 17.6 °C 13.5 °C 1006.0 hPa Calm     77 % 0.0 mm
20:32 17.3 °C 13.4 °C 1006.0 hPa Calm     78 % 0.0 mm
20:37 17.0 °C 13.1 °C 1006.3 hPa Calm     78 % 0.0 mm
20:42 16.7 °C 13.0 °C 1006.0 hPa Calm     79 % 0.0 mm
20:47 16.4 °C 12.7 °C 1006.3 hPa Calm     79 % 0.0 mm
20:52 16.1 °C 12.6 °C 1006.3 hPa Calm     80 % 0.0 mm
20:57 15.9 °C 12.3 °C 1006.3 hPa Calm     79 % 0.0 mm
21:02 15.8 °C 12.2 °C 1006.3 hPa Calm     79 % 0.0 mm
21:07 15.8 °C 12.2 °C 1006.3 hPa Calm     79 % 0.0 mm
21:12 15.8 °C 12.2 °C 1006.3 hPa Calm     79 % 0.0 mm
21:17 15.6 °C 12.2 °C 1006.3 hPa Calm     80 % 0.0 mm
21:22 15.4 °C 12.2 °C 1006.3 hPa Calm     81 % 0.0 mm
21:32 15.2 °C 12.0 °C 1006.3 hPa Calm     81 % 0.0 mm
21:37 15.1 °C 11.9 °C 1006.3 hPa Calm     81 % 0.0 mm
21:42 15.0 °C 11.8 °C 1006.3 hPa Calm     81 % 0.0 mm
21:47 15.0 °C 11.8 °C 1006.3 hPa Calm     81 % 0.0 mm
21:52 14.8 °C 11.8 °C 1006.3 hPa Calm     82 % 0.0 mm
21:57 14.7 °C 11.8 °C 1006.7 hPa Calm     83 % 0.0 mm
22:02 14.5 °C 11.6 °C 1006.7 hPa Calm     83 % 0.0 mm
22:07 14.6 °C 11.4 °C 1006.7 hPa Calm     81 % 0.0 mm
22:12 14.6 °C 11.2 °C 1006.7 hPa Calm     80 % 0.0 mm
22:17 14.7 °C 11.1 °C 1006.7 hPa Calm     79 % 0.0 mm
22:22 14.6 °C 10.8 °C 1006.7 hPa Calm   1.6 km/h 78 % 0.0 mm
22:27 14.6 °C 10.8 °C 1006.7 hPa Calm   1.6 km/h 78 % 0.0 mm
22:32 14.4 °C 10.4 °C 1006.7 hPa Calm   1.6 km/h 77 % 0.0 mm
22:37 14.3 °C 10.3 °C 1006.7 hPa Calm   1.6 km/h 77 % 0.0 mm
22:42 14.2 °C 10.2 °C 1006.7 hPa Calm   1.6 km/h 77 % 0.0 mm
22:47 14.3 °C 10.3 °C 1006.7 hPa Calm     77 % 0.0 mm
22:52 14.4 °C 10.2 °C 1006.7 hPa Calm     76 % 0.0 mm
22:57 14.2 °C 10.2 °C 1006.7 hPa Calm     77 % 0.0 mm
23:02 13.8 °C 10.0 °C 1006.7 hPa Calm     78 % 0.0 mm
23:07 13.4 °C 9.8 °C 1006.7 hPa Calm     79 % 0.0 mm
23:12 13.2 °C 9.8 °C 1006.7 hPa Calm     80 % 0.0 mm
23:17 12.9 °C 9.7 °C 1006.7 hPa Calm     81 % 0.0 mm
23:22 12.8 °C 9.8 °C 1006.7 hPa Calm     82 % 0.0 mm
23:32 12.5 °C 9.7 °C 1006.7 hPa Calm     83 % 0.0 mm
23:37 12.4 °C 9.6 °C 1006.7 hPa Calm     83 % 0.0 mm
23:42 12.3 °C 9.5 °C 1006.7 hPa Calm     83 % 0.0 mm
23:47 12.2 °C 9.4 °C 1006.7 hPa Calm     83 % 0.0 mm
23:52 12.1 °C 9.3 °C 1007.0 hPa Calm     83 % 0.0 mm
23:57 12.2 °C 9.4 °C 1006.7 hPa Calm   1.6 km/h 83 % 0.0 mm
Meteo18
Compliments of Weather Underground - 4 mb

Script developed by  Jim McMurry - jmcmurry@mwt.net Adapted for the template by  Wim van der Kuil - Leuven-Template.eu

You find our weather info also at:

European Weather Network

Weather Underground

Equipment we use:

Weather-station
Davis Vue

Weather-program
Meteohub

Weather-server
Raspberry PI 2 B+

Provider
1 and 1

Davis Vue

Meteohub

Raspberry PI 2 B+

1 and 1